Time;durP1;ratioP1;P1;durP2;ratioP2;P2;SDS_P1;SDS_P2;PMS_P1;PMS_P2;Temp;Humidity;BMP_temperature;BMP_pressure;BME280_temperature;BME280_humidity;BME280_pressure;Samples;Min_cycle;Max_cycle;Signal;HPM_P1;HPM_P2
2022/11/06 00:00:55;;;;;;;0.50;0.40;;;8.90;99.90;;;;;;5053187;28;20289;-78
2022/11/06 00:03:22;;;;;;;0.68;0.68;;;8.80;99.90;;;;;;5053020;28;20297;-77
2022/11/06 00:08:36;;;;;;;0.63;0.63;;;8.80;99.90;;;;;;5051823;28;20193;-77
2022/11/06 00:11:09;;;;;;;2.25;0.75;;;8.80;99.90;;;;;;5052939;28;20563;-76
2022/11/06 00:13:37;;;;;;;0.70;0.70;;;8.70;99.90;;;;;;5052167;28;20573;-74
2022/11/06 00:16:05;;;;;;;0.65;0.63;;;8.70;99.90;;;;;;5051450;28;20225;-78
2022/11/06 00:18:32;;;;;;;3.33;2.00;;;8.70;99.90;;;;;;5052250;28;20639;-77
2022/11/06 00:20:59;;;;;;;1.35;1.25;;;8.70;99.90;;;;;;5051057;28;20289;-78
2022/11/06 00:23:26;;;;;;;3.25;2.45;;;8.60;99.90;;;;;;5051723;28;20321;-77
2022/11/06 00:25:55;;;;;;;7.05;1.55;;;8.60;99.90;;;;;;5051409;28;20309;-77
2022/11/06 00:28:22;;;;;;;4.30;3.90;;;8.60;99.90;;;;;;5051554;28;20213;-78
2022/11/06 00:30:49;;;;;;;0.70;0.70;;;8.50;99.90;;;;;;5051929;28;20289;-78
2022/11/06 00:33:16;;;;;;;1.90;1.80;;;8.50;99.90;;;;;;5051708;28;20190;-77
2022/11/06 00:35:42;;;;;;;3.67;1.30;;;8.50;99.90;;;;;;5050549;28;20225;-78
2022/11/06 00:38:09;;;;;;;0.70;0.70;;;8.50;99.90;;;;;;5051903;28;20444;-77
2022/11/06 00:40:36;;;;;;;0.60;0.60;;;8.50;99.90;;;;;;5052114;28;20320;-77
2022/11/06 00:43:04;;;;;;;0.50;0.40;;;8.50;99.90;;;;;;5051752;28;20691;-79
2022/11/06 00:45:31;;;;;;;2.15;1.40;;;8.50;99.90;;;;;;5051278;28;20225;-77
2022/11/06 00:47:58;;;;;;;0.60;0.57;;;8.50;99.90;;;;;;5051640;28;20280;-77
2022/11/06 00:50:26;;;;;;;4.32;2.45;;;8.50;99.90;;;;;;5051686;28;20199;-77
2022/11/06 00:52:53;;;;;;;1.50;1.40;;;8.50;99.90;;;;;;5051410;28;20195;-77
2022/11/06 00:55:20;;;;;;;2.90;2.17;;;8.50;99.90;;;;;;5051039;28;20227;-78
2022/11/06 00:57:47;;;;;;;2.95;2.75;;;8.50;99.90;;;;;;5051707;28;20198;-78
2022/11/06 01:00:19;;;;;;;2.55;0.60;;;8.50;99.90;;;;;;5052015;28;20191;-77
2022/11/06 01:02:46;;;;;;;0.50;0.40;;;8.50;99.90;;;;;;5051134;28;20725;-78
2022/11/06 01:05:13;;;;;;;0.50;0.50;;;8.60;99.90;;;;;;5050849;28;20312;-79
2022/11/06 01:07:41;;;;;;;0.60;0.50;;;8.60;99.90;;;;;;5052039;28;20537;-77
2022/11/06 01:10:08;;;;;;;1.90;0.98;;;8.50;99.90;;;;;;5051343;28;20191;-77
2022/11/06 01:12:35;;;;;;;0.70;0.70;;;8.60;99.90;;;;;;5051573;28;20256;-76
2022/11/06 01:15:02;;;;;;;1.58;1.48;;;8.50;99.90;;;;;;5050799;28;20764;-78
2022/11/06 01:17:30;;;;;;;3.80;2.35;;;8.50;99.90;;;;;;5051485;28;20733;-77
2022/11/06 01:19:57;;;;;;;2.60;2.50;;;8.50;99.90;;;;;;5050923;28;20293;-78
2022/11/06 01:22:24;;;;;;;0.50;0.40;;;8.50;99.90;;;;;;5051100;28;20307;-78
2022/11/06 01:24:50;;;;;;;0.60;0.50;;;8.50;99.90;;;;;;5050835;28;20223;-76
2022/11/06 01:27:17;;;;;;;0.90;0.90;;;8.50;99.90;;;;;;5050958;28;20200;-78
2022/11/06 01:29:44;;;;;;;5.78;1.00;;;8.50;99.90;;;;;;5050809;28;20232;-78
2022/11/06 01:32:11;;;;;;;0.50;0.50;;;8.50;99.90;;;;;;5051089;28;20387;-77
2022/11/06 01:34:40;;;;;;;0.95;0.95;;;8.40;99.90;;;;;;5050626;28;20561;-78
2022/11/06 01:37:07;;;;;;;0.50;0.50;;;8.50;99.90;;;;;;5051365;28;20237;-78
2022/11/06 01:39:34;;;;;;;0.77;0.77;;;8.40;99.90;;;;;;5051225;28;20226;-77
2022/11/06 01:42:00;;;;;;;1.55;1.17;;;8.40;99.90;;;;;;5050821;28;20225;-78
2022/11/06 01:45:16;;;;;;;0.50;0.40;;;8.40;99.90;;;;;;5050529;28;20227;-77
2022/11/06 01:47:43;;;;;;;0.73;0.73;;;8.40;99.90;;;;;;5054242;28;20195;-79
2022/11/06 01:50:14;;;;;;;0.50;0.40;;;8.40;99.90;;;;;;5054317;28;20198;-78
2022/11/06 01:52:41;;;;;;;1.05;0.95;;;8.40;99.90;;;;;;5054819;28;20215;-77
2022/11/06 01:55:12;;;;;;;0.70;0.70;;;8.40;99.90;;;;;;5053763;28;20225;-77
2022/11/06 01:57:39;;;;;;;0.60;0.60;;;8.40;99.90;;;;;;5054501;28;20285;-77
2022/11/06 02:00:08;;;;;;;4.30;1.55;;;8.40;99.90;;;;;;5054639;28;20716;-77
2022/11/06 02:02:36;;;;;;;0.65;0.65;;;8.40;99.90;;;;;;5054481;28;20305;-78
2022/11/06 02:05:04;;;;;;;0.50;0.40;;;8.40;99.90;;;;;;5053716;28;20230;-77
2022/11/06 02:07:33;;;;;;;0.50;0.40;;;8.40;99.90;;;;;;5054258;28;20582;-77
2022/11/06 02:09:59;;;;;;;0.80;0.50;;;8.40;99.90;;;;;;5053946;28;20301;-78
2022/11/06 02:12:37;;;;;;;1.00;0.77;;;8.40;99.90;;;;;;5054213;28;20277;-78
2022/11/06 02:15:11;;;;;;;0.98;0.60;;;8.40;99.90;;;;;;5053996;28;20242;-78
2022/11/06 02:17:53;;;;;;;0.50;0.50;;;8.40;99.90;;;;;;5054629;28;20182;-78
2022/11/06 02:20:32;;;;;;;0.70;0.50;;;8.40;99.90;;;;;;5053768;28;20195;-78
2022/11/06 02:23:25;;;;;;;1.00;0.90;;;8.40;99.90;;;;;;5054405;28;20214;-77
2022/11/06 02:26:02;;;;;;;1.33;1.25;;;8.40;99.90;;;;;;5053615;28;20268;-78
2022/11/06 02:28:35;;;;;;;0.50;0.40;;;8.50;99.90;;;;;;5053886;28;20601;-78
2022/11/06 02:31:07;;;;;;;0.90;0.75;;;8.50;99.90;;;;;;5053642;28;20225;-79
2022/11/06 02:33:38;;;;;;;2.28;0.90;;;8.50;99.90;;;;;;5053694;28;20230;-78
2022/11/06 02:36:08;;;;;;;1.73;1.27;;;8.50;99.90;;;;;;5053829;28;20221;-77
2022/11/06 02:38:40;;;;;;;2.38;0.88;;;8.50;99.90;;;;;;5053652;28;20281;-77
2022/11/06 02:41:13;;;;;;;0.88;0.88;;;8.50;99.90;;;;;;5053442;28;20294;-77
2022/11/06 02:43:45;;;;;;;11.73;1.35;;;8.40;99.90;;;;;;5053807;28;20297;-77
2022/11/06 02:46:15;;;;;;;0.65;0.65;;;8.40;99.90;;;;;;5053072;28;20221;-77
2022/11/06 02:48:47;;;;;;;0.50;0.50;;;8.40;99.90;;;;;;5053967;28;20290;-78
2022/11/06 02:51:18;;;;;;;0.68;0.68;;;8.40;99.90;;;;;;5053453;28;20234;-77
2022/11/06 02:53:46;;;;;;;1.83;0.98;;;8.40;99.90;;;;;;5053499;28;20254;-78
2022/11/06 02:56:17;;;;;;;1.05;0.68;;;8.30;99.90;;;;;;5053499;28;20329;-78
2022/11/06 02:58:50;;;;;;;8.75;0.90;;;8.40;99.90;;;;;;5052408;28;20281;-77
2022/11/06 03:01:24;;;;;;;1.10;0.93;;;8.40;99.90;;;;;;5053315;28;20285;-78
2022/11/06 03:03:55;;;;;;;0.85;0.85;;;8.40;99.90;;;;;;5053283;28;20774;-78
2022/11/06 03:06:30;;;;;;;4.72;2.50;;;8.30;99.90;;;;;;5052695;28;20230;-77
2022/11/06 03:09:02;;;;;;;0.70;0.60;;;8.30;99.90;;;;;;5053345;28;20194;-77
2022/11/06 03:11:31;;;;;;;0.50;0.50;;;8.30;99.90;;;;;;5052821;28;20183;-78
2022/11/06 03:14:08;;;;;;;1.25;1.02;;;8.30;99.90;;;;;;5052758;28;20285;-79
2022/11/06 03:16:43;;;;;;;0.50;0.45;;;8.30;99.90;;;;;;5052675;28;20214;-77
2022/11/06 03:19:19;;;;;;;0.60;0.60;;;8.30;99.90;;;;;;5053391;28;20300;-77
2022/11/06 03:21:56;;;;;;;0.65;0.52;;;8.30;99.90;;;;;;5052726;28;20293;-78
2022/11/06 03:24:31;;;;;;;12.18;1.15;;;8.30;99.90;;;;;;5052674;28;20297;-78
2022/11/06 03:26:59;;;;;;;0.77;0.75;;;8.30;99.90;;;;;;5053166;28;20270;-77
2022/11/06 03:29:32;;;;;;;0.50;0.50;;;8.30;99.90;;;;;;5052697;28;20194;-77
2022/11/06 03:32:05;;;;;;;1.05;0.70;;;8.20;99.90;;;;;;5053062;28;20178;-77
2022/11/06 03:34:39;;;;;;;0.80;0.80;;;8.20;99.90;;;;;;5052811;28;20214;-79
2022/11/06 03:37:14;;;;;;;1.60;1.50;;;8.20;99.90;;;;;;5052794;28;20206;-77
2022/11/06 03:39:46;;;;;;;1.20;1.20;;;8.20;99.90;;;;;;5053241;28;20282;-79
2022/11/06 03:42:16;;;;;;;0.70;0.70;;;8.20;99.90;;;;;;5052952;28;20198;-77
2022/11/06 03:44:51;;;;;;;0.63;0.57;;;8.20;99.90;;;;;;5052192;28;20225;-78
2022/11/06 03:47:22;;;;;;;0.50;0.40;;;8.20;99.90;;;;;;5052873;28;20607;-77
2022/11/06 03:49:54;;;;;;;2.17;1.02;;;8.20;99.90;;;;;;5052532;28;20270;-78
2022/11/06 03:52:28;;;;;;;0.60;0.50;;;8.20;99.90;;;;;;5052547;28;20213;-79
2022/11/06 03:54:57;;;;;;;0.60;0.50;;;8.20;99.90;;;;;;5052332;28;20714;-78
2022/11/06 03:57:30;;;;;;;1.02;0.50;;;8.20;99.90;;;;;;5052289;28;20203;-79
2022/11/06 04:00:01;;;;;;;0.50;0.40;;;8.10;99.90;;;;;;5052536;28;20218;-79
2022/11/06 04:02:31;;;;;;;0.77;0.65;;;8.20;99.90;;;;;;5052267;28;20200;-77
2022/11/06 04:05:04;;;;;;;4.63;0.93;;;8.20;99.90;;;;;;5051997;28;20233;-77
2022/11/06 04:07:35;;;;;;;0.98;0.98;;;8.20;99.90;;;;;;5073520;22;20265;-72
2022/11/06 04:15:47;;;;;;;8.63;1.10;;;8.30;99.90;;;;;;5051213;28;20225;-74
2022/11/06 04:18:18;;;;;;;0.60;0.60;;;8.30;99.90;;;;;;5051398;28;20309;-71
2022/11/06 04:23:45;;;;;;;1.63;1.52;;;8.30;99.90;;;;;;5051223;28;20217;-74
2022/11/06 04:26:36;;;;;;;1.35;1.02;;;8.30;99.90;;;;;;5051571;28;20621;-74
2022/11/06 04:29:10;;;;;;;0.80;0.80;;;8.30;99.90;;;;;;5051848;28;20224;-74
2022/11/06 04:31:47;;;;;;;2.90;1.45;;;8.30;99.90;;;;;;5051146;28;20181;-74
2022/11/06 04:34:20;;;;;;;0.50;0.50;;;8.30;99.90;;;;;;5051143;28;20221;-75
2022/11/06 04:36:51;;;;;;;1.55;1.00;;;8.30;99.90;;;;;;5051339;28;20237;-74
2022/11/06 04:39:27;;;;;;;1.48;0.75;;;8.20;99.90;;;;;;5051014;28;20382;-74
2022/11/06 04:42:02;;;;;;;0.50;0.40;;;8.20;99.90;;;;;;5051295;28;20666;-75
2022/11/06 04:44:32;;;;;;;0.93;0.93;;;8.20;99.90;;;;;;5051054;28;20228;-74
2022/11/06 04:47:03;;;;;;;0.50;0.40;;;8.20;99.90;;;;;;5051291;28;20647;-75
2022/11/06 04:49:33;;;;;;;0.60;0.50;;;8.20;99.90;;;;;;5051202;28;20233;-75
2022/11/06 04:52:02;;;;;;;1.80;1.60;;;8.20;99.90;;;;;;5051318;28;20234;-75
2022/11/06 04:54:30;;;;;;;0.60;0.50;;;8.20;99.90;;;;;;5050848;28;20277;-74
2022/11/06 04:56:59;;;;;;;0.85;0.80;;;8.20;99.90;;;;;;5051096;28;20305;-74
2022/11/06 04:59:26;;;;;;;1.02;0.68;;;8.30;99.90;;;;;;5050894;28;20804;-75
2022/11/06 05:01:53;;;;;;;0.80;0.73;;;8.30;99.90;;;;;;5050906;28;20225;-74
2022/11/06 05:04:21;;;;;;;0.50;0.50;;;8.30;99.90;;;;;;5051064;28;20221;-74
2022/11/06 05:06:48;;;;;;;0.50;0.43;;;8.30;99.90;;;;;;5050627;28;20201;-74
2022/11/06 05:09:15;;;;;;;0.50;0.40;;;8.30;99.90;;;;;;5050850;28;20229;-75
2022/11/06 05:11:42;;;;;;;0.50;0.40;;;8.30;99.90;;;;;;5051005;28;20294;-75
2022/11/06 05:14:09;;;;;;;0.50;0.40;;;8.30;99.90;;;;;;5050786;28;20197;-75
2022/11/06 05:16:36;;;;;;;1.13;1.00;;;8.40;99.90;;;;;;5050726;28;20302;-75
2022/11/06 05:19:03;;;;;;;0.52;0.52;;;8.40;99.90;;;;;;5050659;28;20211;-74
2022/11/06 05:24:15;;;;;;;0.98;0.73;;;8.40;99.90;;;;;;5054568;28;20208;-74
2022/11/06 05:26:42;;;;;;;0.50;0.40;;;8.30;99.90;;;;;;5055001;28;20201;-73
2022/11/06 05:29:10;;;;;;;0.50;0.40;;;8.40;99.90;;;;;;5054573;28;20673;-74
2022/11/06 05:31:37;;;;;;;0.50;0.40;;;8.40;99.90;;;;;;5054289;28;20285;-74
2022/11/06 05:34:04;;;;;;;1.27;0.98;;;8.40;99.90;;;;;;5054234;28;20285;-75
2022/11/06 05:36:32;;;;;;;1.33;0.70;;;8.30;99.90;;;;;;5054540;28;20205;-74
2022/11/06 05:38:59;;;;;;;9.30;1.55;;;8.40;99.90;;;;;;5054600;28;20226;-74
2022/11/06 05:41:26;;;;;;;0.50;0.40;;;8.40;99.90;;;;;;5054461;28;20671;-75
2022/11/06 05:43:52;;;;;;;0.60;0.57;;;8.40;99.90;;;;;;5054094;28;20210;-74
2022/11/06 05:46:19;;;;;;;0.85;0.85;;;8.40;99.90;;;;;;5054340;28;20545;-75
2022/11/06 05:48:46;;;;;;;0.82;0.70;;;8.40;99.90;;;;;;5054380;28;20218;-74
2022/11/06 05:51:13;;;;;;;1.95;1.45;;;8.40;99.90;;;;;;5054497;28;20230;-75
2022/11/06 05:53:41;;;;;;;4.93;1.30;;;8.40;99.90;;;;;;5054171;28;20194;-74
2022/11/06 05:56:08;;;;;;;0.55;0.55;;;8.50;99.90;;;;;;5054112;28;20293;-75
2022/11/06 05:58:35;;;;;;;0.50;0.40;;;8.40;99.90;;;;;;5053823;28;20305;-74
2022/11/06 06:01:02;;;;;;;0.60;0.60;;;8.40;99.90;;;;;;5054103;28;20285;-75
2022/11/06 06:03:29;;;;;;;0.75;0.75;;;8.40;99.90;;;;;;5054266;28;20240;-74
2022/11/06 06:05:55;;;;;;;0.50;0.40;;;8.40;99.90;;;;;;5053885;28;20293;-74
2022/11/06 06:08:22;;;;;;;1.45;0.88;;;8.40;99.90;;;;;;5053295;28;20738;-74
2022/11/06 06:10:50;;;;;;;0.50;0.40;;;8.40;99.90;;;;;;5054210;28;20201;-73
2022/11/06 06:13:17;;;;;;;3.30;0.60;;;8.40;99.90;;;;;;5053863;28;20193;-74
2022/11/06 06:15:45;;;;;;;0.70;0.68;;;8.50;99.90;;;;;;5053535;28;20191;-75
2022/11/06 06:18:12;;;;;;;0.50;0.40;;;8.50;99.90;;;;;;5053572;28;20218;-75
2022/11/06 06:20:39;;;;;;;0.80;0.80;;;8.50;99.90;;;;;;5053404;28;20676;-75
2022/11/06 06:23:06;;;;;;;8.98;0.98;;;8.50;99.90;;;;;;5053782;28;20206;-74
2022/11/06 06:25:33;;;;;;;0.50;0.40;;;8.50;99.90;;;;;;5053730;28;20200;-75
2022/11/06 06:28:01;;;;;;;4.30;0.70;;;8.50;99.90;;;;;;5053367;28;20241;-75
2022/11/06 06:30:28;;;;;;;0.60;0.55;;;8.50;99.90;;;;;;5052760;28;20627;-75
2022/11/06 06:32:55;;;;;;;0.93;0.93;;;8.50;99.90;;;;;;5052361;28;20289;-75
2022/11/06 06:35:22;;;;;;;0.50;0.40;;;8.50;99.90;;;;;;5053060;28;20281;-75
2022/11/06 06:37:53;;;;;;;0.50;0.40;;;8.50;99.90;;;;;;5053436;28;20313;-75
2022/11/06 06:40:20;;;;;;;0.50;0.40;;;8.50;99.90;;;;;;5053356;28;20194;-73
2022/11/06 06:42:47;;;;;;;0.50;0.40;;;8.50;99.90;;;;;;5053140;28;20733;-76
2022/11/06 06:45:15;;;;;;;0.50;0.40;;;8.50;99.90;;;;;;5052690;28;20305;-75
2022/11/06 06:47:42;;;;;;;0.60;0.50;;;8.60;99.90;;;;;;5053463;28;20641;-75
2022/11/06 06:50:10;;;;;;;0.50;0.40;;;8.60;99.90;;;;;;5053196;28;20195;-76
2022/11/06 06:52:37;;;;;;;0.60;0.60;;;8.70;99.90;;;;;;5053282;28;20201;-75
2022/11/06 06:55:04;;;;;;;0.98;0.88;;;8.70;99.90;;;;;;5052420;28;20217;-75
2022/11/06 06:57:31;;;;;;;0.50;0.50;;;8.70;99.90;;;;;;5052725;28;20350;-76
2022/11/06 06:59:57;;;;;;;0.60;0.60;;;8.80;99.90;;;;;;5053017;28;20707;-76
2022/11/06 07:02:26;;;;;;;0.52;0.45;;;8.80;99.90;;;;;;5052781;28;20661;-75
2022/11/06 07:04:52;;;;;;;0.60;0.60;;;8.80;99.90;;;;;;5052851;28;20223;-75
2022/11/06 07:07:19;;;;;;;0.70;0.60;;;8.90;99.90;;;;;;5052163;28;20216;-75
2022/11/06 07:09:46;;;;;;;2.45;0.90;;;8.90;99.90;;;;;;5053279;28;20223;-75
2022/11/06 07:12:13;;;;;;;3.55;0.73;;;8.90;99.90;;;;;;5052979;28;20281;-75
2022/11/06 07:14:40;;;;;;;0.88;0.82;;;8.90;99.90;;;;;;5052558;28;20226;-75
2022/11/06 07:17:07;;;;;;;1.17;0.70;;;8.90;99.90;;;;;;5052276;28;20195;-75
2022/11/06 07:19:35;;;;;;;2.78;1.13;;;9.00;99.90;;;;;;5052407;28;20211;-75
2022/11/06 07:22:02;;;;;;;0.60;0.60;;;9.10;99.90;;;;;;5052394;28;20237;-74
2022/11/06 07:24:29;;;;;;;1.35;0.60;;;9.50;99.90;;;;;;5052358;28;20583;-75
2022/11/06 07:26:55;;;;;;;0.60;0.50;;;10.30;99.90;;;;;;5052477;28;20205;-75
2022/11/06 07:29:22;;;;;;;0.50;0.40;;;11.20;99.90;;;;;;5052187;28;20219;-75
2022/11/06 07:31:49;;;;;;;0.50;0.43;;;11.80;99.90;;;;;;5052254;28;20199;-75
2022/11/06 07:34:16;;;;;;;0.50;0.40;;;12.50;99.90;;;;;;5052345;28;20612;-76
2022/11/06 07:36:44;;;;;;;0.50;0.40;;;13.00;99.90;;;;;;5052070;28;20512;-75
2022/11/06 07:39:11;;;;;;;1.53;1.07;;;13.40;99.90;;;;;;5052161;28;20549;-75
2022/11/06 07:41:38;;;;;;;0.50;0.40;;;13.70;99.90;;;;;;5052264;28;20443;-76
2022/11/06 07:44:05;;;;;;;0.50;0.40;;;13.90;99.90;;;;;;5051438;28;20572;-75
2022/11/06 07:46:32;;;;;;;0.50;0.40;;;14.10;99.90;;;;;;5052109;28;20445;-75
2022/11/06 07:48:59;;;;;;;0.50;0.40;;;14.10;99.90;;;;;;5052168;28;20488;-76
2022/11/06 07:51:26;;;;;;;0.50;0.40;;;14.30;99.90;;;;;;5051731;28;20841;-76
2022/11/06 07:53:54;;;;;;;0.50;0.50;;;14.70;99.90;;;;;;5051689;28;20519;-75
2022/11/06 07:56:21;;;;;;;0.50;0.40;;;15.10;99.90;;;;;;5052008;28;20432;-76
2022/11/06 07:58:48;;;;;;;0.53;0.40;;;15.60;99.90;;;;;;5051341;28;21030;-76
2022/11/06 08:01:16;;;;;;;0.60;0.50;;;15.70;99.90;;;;;;5051952;28;20541;-75
2022/11/06 08:03:43;;;;;;;2.40;1.73;;;15.70;99.90;;;;;;5051545;28;20960;-76
2022/11/06 08:06:10;;;;;;;0.60;0.60;;;15.70;99.90;;;;;;5051821;28;20440;-76
2022/11/06 08:08:38;;;;;;;1.60;1.13;;;16.30;99.90;;;;;;5051249;28;20469;-76
2022/11/06 08:11:08;;;;;;;0.87;0.87;;;16.80;99.90;;;;;;5052144;28;20523;-76
2022/11/06 08:13:35;;;;;;;1.03;1.03;;;17.10;99.90;;;;;;5051499;28;20536;-76
2022/11/06 08:16:05;;;;;;;0.70;0.60;;;17.40;99.90;;;;;;5051483;28;20870;-76
2022/11/06 08:18:32;;;;;;;0.50;0.40;;;17.40;99.90;;;;;;5051549;28;20467;-76
2022/11/06 08:20:59;;;;;;;2.87;0.60;;;17.80;99.90;;;;;;5051450;28;20842;-75
2022/11/06 08:23:26;;;;;;;0.50;0.40;;;17.40;99.90;;;;;;5051066;28;20441;-75
2022/11/06 08:25:55;;;;;;;2.50;1.60;;;17.30;99.90;;;;;;5051171;28;20481;-76
2022/11/06 08:28:24;;;;;;;0.50;0.40;;;17.60;99.90;;;;;;5051229;28;20461;-76
2022/11/06 08:30:51;;;;;;;0.50;0.30;;;17.40;99.90;;;;;;5051215;28;20469;-75
2022/11/06 08:33:19;;;;;;;0.50;0.40;;;16.90;99.90;;;;;;5051119;28;20962;-76
2022/11/06 08:35:45;;;;;;;2.30;2.10;;;16.70;99.90;;;;;;5050988;28;20891;-76
2022/11/06 08:38:12;;;;;;;0.60;0.40;;;16.80;99.90;;;;;;5050997;28;20465;-76
2022/11/06 08:40:39;;;;;;;0.50;0.30;;;16.90;99.90;;;;;;5051385;28;20780;-76
2022/11/06 08:43:08;;;;;;;0.60;0.40;;;17.50;99.90;;;;;;5051268;28;20488;-76
2022/11/06 08:45:39;;;;;;;1.90;0.50;;;18.00;99.90;;;;;;5051087;28;20977;-76
2022/11/06 08:48:07;;;;;;;0.70;0.60;;;18.50;99.90;;;;;;5051289;28;20548;-75
2022/11/06 08:50:35;;;;;;;0.50;0.30;;;18.40;99.70;;;;;;5050920;28;20520;-76
2022/11/06 08:53:05;;;;;;;0.50;0.40;;;18.80;99.70;;;;;;5050893;28;20524;-76
2022/11/06 08:55:32;;;;;;;2.93;0.60;;;18.00;99.70;;;;;;5050788;28;20437;-76
2022/11/06 08:57:59;;;;;;;2.40;1.70;;;17.60;99.90;;;;;;5055082;28;20543;-76
2022/11/06 09:00:26;;;;;;;0.50;0.40;;;16.90;99.90;;;;;;5055166;28;20819;-76
2022/11/06 09:02:59;;;;;;;0.50;0.40;;;16.70;99.90;;;;;;5055415;28;20532;-75
2022/11/06 09:05:27;;;;;;;1.23;0.83;;;16.20;99.90;;;;;;5054658;28;20551;-76
2022/11/06 09:07:54;;;;;;;0.60;0.50;;;15.00;99.90;;;;;;5055089;28;20472;-76
2022/11/06 09:10:20;;;;;;;2.20;1.47;;;14.50;99.90;;;;;;5054837;28;20441;-72
2022/11/06 09:12:47;;;;;;;0.70;0.70;;;13.70;99.90;;;;;;5054866;28;20437;-75
2022/11/06 09:15:14;;;;;;;7.30;3.70;;;13.40;99.90;;;;;;5054274;28;20595;-75
2022/11/06 09:17:44;;;;;;;0.50;0.40;;;13.00;99.90;;;;;;5054710;28;20544;-75
2022/11/06 09:20:13;;;;;;;0.50;0.40;;;12.60;99.90;;;;;;5054401;28;20536;-76
2022/11/06 09:22:41;;;;;;;0.50;0.40;;;12.40;99.90;;;;;;5054838;28;20433;-75
2022/11/06 09:25:09;;;;;;;0.67;0.67;;;12.30;99.90;;;;;;5054283;28;20218;-75
2022/11/06 09:27:42;;;;;;;0.77;0.47;;;12.20;99.90;;;;;;5054908;28;20547;-75
2022/11/06 09:30:10;;;;;;;1.60;0.83;;;12.10;99.90;;;;;;5054045;28;20443;-75
2022/11/06 09:32:37;;;;;;;0.60;0.50;;;12.10;99.90;;;;;;5054748;28;20895;-75
2022/11/06 09:35:04;;;;;;;0.90;0.60;;;12.00;99.90;;;;;;5054323;28;20449;-75
2022/11/06 09:37:32;;;;;;;0.50;0.40;;;12.00;99.90;;;;;;5054793;28;20194;-75
2022/11/06 09:39:59;;;;;;;0.50;0.40;;;12.00;99.90;;;;;;5054212;28;20463;-75
2022/11/06 09:42:37;;;;;;;0.80;0.57;;;12.10;99.90;;;;;;5054754;28;20523;-74
2022/11/06 09:45:11;;;;;;;4.20;0.90;;;12.20;99.90;;;;;;5054121;28;20219;-75
2022/11/06 09:47:43;;;;;;;0.60;0.50;;;12.30;99.90;;;;;;5054328;28;20527;-75
2022/11/06 09:50:17;;;;;;;0.60;0.50;;;12.40;99.90;;;;;;5054600;28;20447;-74
2022/11/06 09:52:49;;;;;;;0.50;0.40;;;12.70;99.90;;;;;;5054036;28;20425;-75
2022/11/06 09:55:20;;;;;;;3.43;0.60;;;12.70;99.90;;;;;;5053984;28;20444;-75
2022/11/06 09:57:51;;;;;;;0.50;0.40;;;12.60;99.90;;;;;;5054345;28;20456;-75
2022/11/06 10:00:19;;;;;;;0.50;0.40;;;12.60;99.90;;;;;;5054349;28;20270;-76
2022/11/06 10:02:49;;;;;;;2.17;1.50;;;12.60;99.90;;;;;;5054097;28;20476;-75
2022/11/06 10:05:24;;;;;;;0.60;0.50;;;12.80;99.90;;;;;;5053457;28;20476;-76
2022/11/06 10:07:55;;;;;;;0.60;0.50;;;13.00;99.90;;;;;;5053322;28;20461;-75
2022/11/06 10:10:28;;;;;;;1.37;0.60;;;12.80;99.90;;;;;;5055292;28;20867;-73
2022/11/06 10:13:06;;;;;;;0.60;0.43;;;12.50;99.90;;;;;;5054162;28;20426;-76
2022/11/06 10:15:36;;;;;;;0.60;0.40;;;12.50;99.90;;;;;;5053539;28;20430;-75
2022/11/06 10:18:12;;;;;;;0.50;0.40;;;12.30;99.90;;;;;;5053540;28;20556;-75
2022/11/06 10:20:46;;;;;;;0.50;0.40;;;12.40;99.90;;;;;;5054107;28;20431;-76
2022/11/06 10:23:20;;;;;;;3.50;2.63;;;12.50;99.90;;;;;;5053825;28;20197;-75
2022/11/06 10:26:00;;;;;;;0.50;0.40;;;12.60;99.90;;;;;;5053071;28;20473;-75
2022/11/06 10:28:54;;;;;;;0.50;0.40;;;12.70;99.90;;;;;;5053173;28;20463;-75
2022/11/06 10:31:29;;;;;;;0.50;0.40;;;12.70;99.90;;;;;;5053517;28;20504;-75
2022/11/06 10:34:00;;;;;;;0.50;0.40;;;12.50;99.90;;;;;;5052925;28;20451;-75
2022/11/06 10:36:31;;;;;;;0.50;0.40;;;12.70;99.90;;;;;;5053511;28;20831;-76
2022/11/06 10:39:01;;;;;;;0.70;0.50;;;12.80;99.90;;;;;;5053398;28;20479;-75
2022/11/06 10:41:33;;;;;;;0.77;0.77;;;12.80;99.90;;;;;;5053374;28;21041;-75
2022/11/06 10:44:02;;;;;;;6.80;2.60;;;12.70;99.90;;;;;;5053102;28;20476;-76
2022/11/06 10:46:35;;;;;;;0.60;0.50;;;12.80;99.90;;;;;;5053302;28;20564;-72
2022/11/06 10:49:04;;;;;;;0.60;0.50;;;12.70;99.90;;;;;;5053143;28;20461;-75
2022/11/06 10:51:56;;;;;;;0.50;0.40;;;12.70;99.90;;;;;;5052651;28;20444;-76
2022/11/06 10:54:38;;;;;;;0.60;0.60;;;12.70;99.90;;;;;;5053218;28;20745;-76
2022/11/06 10:57:18;;;;;;;0.50;0.50;;;12.60;99.90;;;;;;5053216;28;20441;-75
2022/11/06 10:59:45;;;;;;;1.87;0.70;;;12.70;99.90;;;;;;5053129;28;20523;-76
2022/11/06 11:02:24;;;;;;;13.23;3.90;;;12.70;99.90;;;;;;5052431;28;20990;-75
2022/11/06 11:04:51;;;;;;;0.50;0.40;;;12.70;99.90;;;;;;5053103;28;20565;-75
2022/11/06 11:07:17;;;;;;;0.70;0.47;;;12.70;99.90;;;;;;5052632;28;20475;-73
2022/11/06 11:09:48;;;;;;;1.17;0.90;;;12.70;99.90;;;;;;5052386;28;20946;-75
2022/11/06 11:12:22;;;;;;;0.50;0.40;;;12.80;99.90;;;;;;5052985;28;20507;-74
2022/11/06 11:15:06;;;;;;;1.70;1.07;;;12.70;99.90;;;;;;5052338;28;20422;-75
2022/11/06 11:17:33;;;;;;;0.50;0.40;;;12.90;99.90;;;;;;5052813;28;20428;-75
2022/11/06 11:20:01;;;;;;;0.87;0.87;;;13.00;99.90;;;;;;5051921;28;20432;-75
2022/11/06 11:22:28;;;;;;;0.50;0.40;;;13.10;99.90;;;;;;5052894;28;20861;-74
2022/11/06 11:25:05;;;;;;;0.50;0.40;;;13.00;99.90;;;;;;5051967;28;20494;-74
2022/11/06 11:27:36;;;;;;;0.60;0.50;;;12.80;99.90;;;;;;5052383;28;20521;-75
2022/11/06 11:30:04;;;;;;;0.60;0.50;;;12.60;99.90;;;;;;5051709;28;20432;-75
2022/11/06 11:32:31;;;;;;;0.50;0.40;;;12.40;99.90;;;;;;5052544;28;20523;-75
2022/11/06 11:34:59;;;;;;;0.50;0.40;;;12.40;99.90;;;;;;5051682;28;20445;-74
2022/11/06 11:37:29;;;;;;;1.53;0.50;;;12.40;99.90;;;;;;5052350;28;20868;-74
2022/11/06 11:40:16;;;;;;;5.30;0.87;;;12.50;99.90;;;;;;5051984;28;20508;-75
2022/11/06 11:42:44;;;;;;;0.70;0.70;;;12.50;99.90;;;;;;5052080;28;20472;-75
2022/11/06 11:45:18;;;;;;;0.60;0.50;;;12.40;99.90;;;;;;5051673;28;20846;-75
2022/11/06 11:47:47;;;;;;;0.50;0.40;;;12.40;99.90;;;;;;5051938;28;20544;-75
2022/11/06 11:50:27;;;;;;;0.50;0.40;;;12.30;99.90;;;;;;5052434;28;20473;-75
2022/11/06 11:52:57;;;;;;;0.50;0.40;;;12.40;99.90;;;;;;5052135;28;20432;-75
2022/11/06 11:55:28;;;;;;;0.50;0.40;;;12.40;99.90;;;;;;5051561;28;20985;-75
2022/11/06 11:58:00;;;;;;;0.60;0.40;;;12.40;99.90;;;;;;5052077;28;20453;-75
2022/11/06 12:00:28;;;;;;;0.60;0.60;;;12.40;99.90;;;;;;5051981;28;20553;-74
2022/11/06 12:02:58;;;;;;;0.50;0.40;;;12.20;99.90;;;;;;5051987;28;20274;-74
2022/11/06 12:05:32;;;;;;;0.60;0.50;;;12.10;99.90;;;;;;5051580;28;20664;-74
2022/11/06 12:08:00;;;;;;;0.50;0.40;;;12.20;99.90;;;;;;5051230;28;20595;-77
2022/11/06 12:10:29;;;;;;;0.50;0.40;;;12.40;99.90;;;;;;5051820;28;20472;-75
2022/11/06 12:12:58;;;;;;;0.50;0.40;;;12.50;99.90;;;;;;5051471;28;20445;-75
2022/11/06 12:15:29;;;;;;;4.10;1.90;;;12.60;99.90;;;;;;5051109;28;20465;-75
2022/11/06 12:18:00;;;;;;;0.60;0.60;;;12.70;99.90;;;;;;5050986;28;20540;-75
2022/11/06 12:20:40;;;;;;;0.50;0.40;;;12.90;99.90;;;;;;5051739;28;20529;-75
2022/11/06 12:23:15;;;;;;;2.03;0.80;;;13.10;99.90;;;;;;5051761;28;20436;-75
2022/11/06 12:25:44;;;;;;;1.07;0.80;;;13.10;99.90;;;;;;5050873;28;20953;-75
2022/11/06 12:28:16;;;;;;;0.60;0.50;;;13.10;99.90;;;;;;5051224;28;20544;-75
2022/11/06 12:30:46;;;;;;;0.60;0.50;;;13.10;99.90;;;;;;5050802;28;20441;-75
2022/11/06 12:33:19;;;;;;;1.00;0.77;;;12.90;99.90;;;;;;5051349;28;20437;-75
2022/11/06 12:35:50;;;;;;;0.90;0.80;;;12.90;99.90;;;;;;5051105;28;21009;-75
2022/11/06 12:38:27;;;;;;;3.80;0.83;;;12.90;99.90;;;;;;5050852;28;20556;-75
2022/11/06 12:40:59;;;;;;;0.50;0.40;;;12.60;99.90;;;;;;5051093;28;20472;-73
2022/11/06 12:43:35;;;;;;;0.50;0.40;;;12.50;99.90;;;;;;5051607;28;20206;-72
2022/11/06 12:46:33;;;;;;;10.20;2.50;;;12.60;99.90;;;;;;5051092;28;20477;-75
2022/11/06 12:49:28;;;;;;;2.43;0.83;;;12.60;99.90;;;;;;5051240;28;20480;-74
2022/11/06 12:52:08;;;;;;;0.80;0.80;;;12.70;99.90;;;;;;5050403;28;21034;-75
2022/11/06 12:54:44;;;;;;;0.50;0.40;;;12.70;99.90;;;;;;5050330;28;20428;-75
2022/11/06 12:57:21;;;;;;;0.50;0.40;;;12.70;99.90;;;;;;5051079;28;20512;-75
2022/11/06 13:00:00;;;;;;;4.40;0.80;;;12.70;99.90;;;;;;5050969;28;20182;-75
2022/11/06 13:02:53;;;;;;;1.00;0.90;;;12.70;99.90;;;;;;5051295;28;20433;-74
2022/11/06 13:05:28;;;;;;;0.50;0.40;;;12.70;99.90;;;;;;5050498;28;20516;-75
2022/11/06 13:08:19;;;;;;;0.50;0.40;;;12.60;99.90;;;;;;5050266;28;20474;-75
2022/11/06 13:10:57;;;;;;;0.90;0.90;;;12.50;99.90;;;;;;5050904;28;20237;-74
2022/11/06 13:13:52;;;;;;;0.53;0.43;;;12.50;99.90;;;;;;5050641;28;21184;-75
2022/11/06 13:16:27;;;;;;;2.50;0.73;;;12.40;99.90;;;;;;5050994;28;20520;-75
2022/11/06 13:19:01;;;;;;;0.60;0.60;;;12.20;99.90;;;;;;5050865;28;20539;-72
2022/11/06 13:21:37;;;;;;;1.33;0.70;;;12.10;99.90;;;;;;5050762;28;20623;-74
2022/11/06 13:24:10;;;;;;;2.23;1.40;;;12.20;99.90;;;;;;5050398;28;20277;-75